Time;durP1;ratioP1;P1;durP2;ratioP2;P2;SDS_P1;SDS_P2;PMS_P1;PMS_P2;Temp;Humidity;BMP_temperature;BMP_pressure;BME280_temperature;BME280_humidity;BME280_pressure;Samples;Min_cycle;Max_cycle;Signal;HPM_P1;HPM_P2
2022/07/25 00:00:26;;;;;;;11.07;7.35;;;;;;;25.95;46.42;101006.22;4970134;28;122963;-79
2022/07/25 00:02:53;;;;;;;9.43;7.82;;;;;;;25.91;46.69;100996.69;4982319;28;119053;-79
2022/07/25 00:05:20;;;;;;;11.55;8.02;;;;;;;25.86;46.60;100996.34;4980142;28;119220;-79
2022/07/25 00:07:48;;;;;;;9.95;8.15;;;;;;;25.82;47.00;100987.66;4976423;28;122584;-79
2022/07/25 00:10:15;;;;;;;10.40;8.65;;;;;;;25.79;46.99;100980.72;4977332;28;123209;-79
2022/07/25 00:12:43;;;;;;;11.32;7.93;;;;;;;25.76;47.14;100978.34;4994776;28;118496;-79
2022/07/25 00:15:11;;;;;;;11.43;8.65;;;;;;;25.74;47.08;100966.78;4994263;28;118291;-79
2022/07/25 00:17:39;;;;;;;13.25;8.18;;;;;;;25.72;47.25;100971.53;4959764;28;122553;-79
2022/07/25 00:20:07;;;;;;;10.70;8.45;;;;;;;25.72;47.33;100971.53;5000892;28;122953;-79
2022/07/25 00:22:35;;;;;;;12.63;9.18;;;;;;;25.71;47.07;100969.00;4984946;28;96741;-79
2022/07/25 00:25:03;;;;;;;10.93;8.05;;;;;;;25.69;47.32;100961.00;4991959;28;119221;-79
2022/07/25 00:27:30;;;;;;;12.65;8.43;;;;;;;25.67;47.45;100954.91;4992072;28;123245;-79
2022/07/25 00:29:57;;;;;;;11.90;8.55;;;;;;;25.67;47.38;100957.63;4977940;28;123222;-79
2022/07/25 00:32:24;;;;;;;13.48;8.63;;;;;;;25.65;47.52;100954.22;4960001;28;118904;-79
2022/07/25 00:34:51;;;;;;;13.25;9.20;;;;;;;25.62;47.45;100949.16;4976273;28;118504;-79
2022/07/25 00:37:18;;;;;;;11.80;8.98;;;;;;;25.59;47.58;100946.75;4993626;28;123249;-79
2022/07/25 00:39:45;;;;;;;12.65;9.68;;;;;;;25.56;47.52;100949.78;4976209;28;122850;-79
2022/07/25 00:42:12;;;;;;;12.35;9.63;;;;;;;25.52;47.54;100951.13;4974922;28;119465;-80
2022/07/25 00:44:39;;;;;;;12.65;10.23;;;;;;;25.48;47.55;100947.91;4976127;28;118124;-80
2022/07/25 00:47:06;;;;;;;17.60;10.60;;;;;;;25.47;47.80;100948.06;4987495;28;123875;-78
2022/07/25 00:49:34;;;;;;;12.73;10.30;;;;;;;25.45;47.74;100937.41;4977812;28;123340;-78
2022/07/25 00:52:01;;;;;;;12.93;10.70;;;;;;;25.45;47.75;100935.53;4970224;28;119192;-78
2022/07/25 00:54:28;;;;;;;13.77;10.40;;;;;;;25.44;47.81;100941.09;4970719;28;118769;-78
2022/07/25 00:56:56;;;;;;;15.50;10.73;;;;;;;25.41;47.82;100936.88;4986682;28;123852;-78
2022/07/25 00:59:23;;;;;;;13.75;10.95;;;;;;;25.40;48.06;100934.31;4989075;28;123168;-78
2022/07/25 01:01:50;;;;;;;15.23;10.93;;;;;;;25.39;47.82;100924.47;4972250;28;117601;-78
2022/07/25 01:04:17;;;;;;;15.68;11.48;;;;;;;25.37;47.85;100927.38;4954992;28;118542;-78
2022/07/25 01:06:45;;;;;;;17.30;11.45;;;;;;;25.36;47.85;100922.94;4967865;28;124285;-77
2022/07/25 01:09:12;;;;;;;13.70;11.38;;;;;;;25.34;47.81;100918.72;4963586;28;123023;-78
2022/07/25 01:11:39;;;;;;;14.00;11.40;;;;;;;25.32;47.88;100916.16;4981327;28;118388;-78
2022/07/25 01:14:06;;;;;;;14.00;10.57;;;;;;;25.29;47.90;100911.06;4986134;28;117262;-77
2022/07/25 01:16:34;;;;;;;14.70;11.65;;;;;;;25.28;48.18;100919.34;4985178;28;123275;-78
2022/07/25 01:19:02;;;;;;;14.60;11.75;;;;;;;25.27;48.14;100907.66;4986375;28;122881;-78
2022/07/25 01:21:29;;;;;;;15.80;11.18;;;;;;;25.25;48.20;100909.69;4987346;28;117384;-78
2022/07/25 01:23:56;;;;;;;17.63;11.55;;;;;;;25.24;48.11;100905.25;4987135;28;118725;-78
2022/07/25 01:26:23;;;;;;;15.50;12.02;;;;;;;25.23;48.33;100900.88;4969849;28;123286;-78
2022/07/25 01:28:50;;;;;;;15.23;11.75;;;;;;;25.20;48.39;100895.72;4986051;28;124725;-78
2022/07/25 01:31:17;;;;;;;15.70;11.73;;;;;;;25.16;48.24;100891.66;4958133;28;120242;-78
2022/07/25 01:33:44;;;;;;;16.70;12.35;;;;;;;25.14;48.26;100890.97;4986176;28;119820;-78
2022/07/25 01:36:12;;;;;;;16.45;11.85;;;;;;;25.12;48.22;100887.59;4986753;28;125577;-78
2022/07/25 01:38:39;;;;;;;18.77;11.70;;;;;;;25.09;48.43;100885.19;4986019;28;122715;-78
2022/07/25 01:41:06;;;;;;;14.20;11.70;;;;;;;25.07;48.33;100885.34;4970223;28;119254;-78
2022/07/25 01:43:33;;;;;;;15.48;11.85;;;;;;;25.03;48.29;100882.13;4987671;28;119327;-78
2022/07/25 01:46:00;;;;;;;18.42;12.40;;;;;;;25.03;48.47;100883.97;4986756;28;123821;-78
2022/07/25 01:48:27;;;;;;;16.35;12.05;;;;;;;25.02;48.52;100883.13;4988020;28;125463;-78
2022/07/25 01:50:55;;;;;;;15.43;11.30;;;;;;;25.00;48.67;100874.31;4987983;28;118152;-77
2022/07/25 01:53:23;;;;;;;14.88;11.90;;;;;;;24.99;48.55;100883.44;4986942;28;118712;-78
2022/07/25 01:55:51;;;;;;;14.40;11.48;;;;;;;24.97;48.74;100869.22;4970697;28;122984;-78
2022/07/25 01:58:20;;;;;;;17.02;12.02;;;;;;;24.97;48.74;100869.22;4969810;28;123939;-78
2022/07/25 02:00:47;;;;;;;14.70;11.30;;;;;;;24.95;48.61;100860.41;4971307;28;118524;-79
2022/07/25 02:03:30;;;;;;;16.27;11.77;;;;;;;24.94;48.38;100874.09;4981372;28;119214;-79
2022/07/25 02:06:01;;;;;;;16.38;12.10;;;;;;;24.93;48.62;100862.44;4990387;28;124964;-79
2022/07/25 02:08:29;;;;;;;14.43;11.32;;;;;;;24.92;48.50;100860.75;4981290;28;124473;-79
2022/07/25 02:10:57;;;;;;;16.15;12.20;;;;;;;24.92;48.45;100860.75;4992534;28;117569;-79
2022/07/25 02:13:25;;;;;;;15.45;11.77;;;;;;;24.90;48.60;100845.66;4976311;28;118149;-79
2022/07/25 02:15:52;;;;;;;15.10;11.93;;;;;;;24.88;48.54;100845.81;4991945;28;123527;-79
2022/07/25 02:18:19;;;;;;;14.82;11.57;;;;;;;24.86;48.61;100850.53;4976036;28;122942;-79
2022/07/25 02:20:46;;;;;;;17.02;11.98;;;;;;;24.85;48.76;100843.44;4959773;28;119938;-79
2022/07/25 02:23:14;;;;;;;15.43;11.27;;;;;;;24.83;48.80;100835.47;4975371;28;119283;-79
2022/07/25 02:25:41;;;;;;;16.40;11.05;;;;;;;24.82;48.61;100838.34;4991703;28;121984;-79
2022/07/25 02:28:08;;;;;;;14.07;11.32;;;;;;;24.80;48.86;100832.22;4975367;28;122881;-78
2022/07/25 02:30:36;;;;;;;15.52;11.30;;;;;;;24.79;48.70;100833.22;4993855;28;119447;-79
2022/07/25 02:33:04;;;;;;;16.48;11.30;;;;;;;24.78;48.78;100831.53;4959180;28;117516;-79
2022/07/25 02:35:31;;;;;;;14.02;11.00;;;;;;;24.76;48.87;100822.72;4994081;28;123727;-79
2022/07/25 02:37:58;;;;;;;14.38;11.35;;;;;;;24.76;48.80;100822.72;4992407;28;124045;-79
2022/07/25 02:40:26;;;;;;;13.52;10.65;;;;;;;24.75;49.12;100821.03;4974828;28;118834;-79
2022/07/25 02:42:53;;;;;;;13.85;10.80;;;;;;;24.75;48.83;100821.03;4977775;28;117698;-79
2022/07/25 02:45:20;;;;;;;13.50;10.90;;;;;;;24.76;49.00;100823.56;4998398;28;124116;-79
2022/07/25 02:47:47;;;;;;;14.65;10.82;;;;;;;24.76;48.72;100820.03;4999265;28;123902;-79
2022/07/25 02:50:14;;;;;;;16.73;11.10;;;;;;;24.75;49.12;100821.03;4968415;28;117161;-79
2022/07/25 02:52:42;;;;;;;12.10;9.68;;;;;;;24.75;48.78;100812.91;4958759;28;117920;-79
2022/07/25 02:55:10;;;;;;;14.52;10.02;;;;;;;24.76;48.91;100811.91;4987653;28;124586;-77
2022/07/25 02:57:37;;;;;;;14.25;9.05;;;;;;;24.76;48.94;100811.91;4966807;28;124148;-77
2022/07/25 03:00:06;;;;;;;14.52;10.02;;;;;;;24.78;48.80;100804.47;4986567;28;119092;-77
2022/07/25 03:02:34;;;;;;;14.07;9.80;;;;;;;24.78;48.77;100793.63;4969042;28;119442;-77
2022/07/25 03:05:05;;;;;;;14.70;9.98;;;;;;;24.79;48.65;100806.13;4952253;28;122110;-78
2022/07/25 03:07:32;;;;;;;13.57;9.68;;;;;;;24.77;48.78;100797.31;4962853;28;121909;-77
2022/07/25 03:09:59;;;;;;;15.55;9.68;;;;;;;24.77;48.62;100794.63;4967453;28;119587;-77
2022/07/25 03:12:26;;;;;;;12.05;9.18;;;;;;;24.76;48.65;100801.06;4984831;28;119120;-77
2022/07/25 03:14:53;;;;;;;13.63;9.73;;;;;;;24.75;48.44;100793.94;4987381;28;123654;-77
2022/07/25 03:17:20;;;;;;;13.02;9.05;;;;;;;24.75;48.36;100788.53;4972047;28;122770;-77
2022/07/25 03:19:47;;;;;;;13.65;9.32;;;;;;;24.73;48.37;100791.38;4971816;28;118186;-77
2022/07/25 03:22:14;;;;;;;13.30;9.20;;;;;;;24.73;48.55;100796.81;4989402;28;118729;-77
2022/07/25 03:24:42;;;;;;;11.88;9.23;;;;;;;24.74;48.62;100792.25;4970935;28;123992;-77
2022/07/25 03:27:09;;;;;;;11.43;8.23;;;;;;;24.74;48.46;100786.84;4988042;28;123263;-77
2022/07/25 03:29:37;;;;;;;10.68;8.68;;;;;;;24.73;48.50;100785.13;4989080;28;119581;-77
2022/07/25 03:32:04;;;;;;;12.55;8.85;;;;;;;24.72;48.51;100778.03;4955265;28;118424;-77
2022/07/25 03:34:31;;;;;;;12.60;8.05;;;;;;;24.70;48.53;100763.81;4988368;28;124108;-77
2022/07/25 03:36:59;;;;;;;12.77;8.63;;;;;;;24.68;48.35;100767.50;4978785;28;123548;-78
2022/07/25 03:39:26;;;;;;;12.95;9.07;;;;;;;24.65;48.47;100762.41;4957773;28;119151;-77
2022/07/25 03:41:54;;;;;;;13.07;8.90;;;;;;;24.64;48.36;100766.16;4954440;28;119237;-77
2022/07/25 03:44:23;;;;;;;11.93;8.60;;;;;;;24.63;48.36;100764.44;4953498;28;123328;-77
2022/07/25 03:46:50;;;;;;;14.27;8.80;;;;;;;24.62;48.44;100768.16;4986656;28;123700;-77
2022/07/25 03:49:18;;;;;;;11.75;8.77;;;;;;;24.62;48.45;100773.59;4963363;28;119238;-78
2022/07/25 03:51:45;;;;;;;15.88;8.55;;;;;;;24.63;48.45;100771.72;4988851;28;118807;-78
2022/07/25 03:54:12;;;;;;;15.20;8.80;;;;;;;24.64;48.41;100759.88;4982042;28;124543;-77
2022/07/25 03:56:47;;;;;;;11.70;7.78;;;;;;;24.63;48.33;100764.44;4988470;28;124168;-78
2022/07/25 03:59:18;;;;;;;13.70;8.43;;;;;;;24.63;48.18;100764.44;4982304;28;120148;-78
2022/07/25 04:01:47;;;;;;;11.32;7.90;;;;;;;24.62;48.33;100757.34;4965800;28;120329;-78
2022/07/25 04:04:14;;;;;;;11.32;8.77;;;;;;;24.64;48.50;100759.88;4947233;28;123358;-78
2022/07/25 04:06:42;;;;;;;11.88;8.45;;;;;;;24.63;48.17;100758.19;4984348;28;124612;-77
2022/07/25 04:09:10;;;;;;;11.27;8.77;;;;;;;24.63;48.48;100758.19;4962953;28;119302;-77
2022/07/25 04:11:37;;;;;;;12.70;9.05;;;;;;;24.62;48.30;100760.03;4986375;28;119051;-78
2022/07/25 04:14:05;;;;;;;12.50;8.40;;;;;;;24.62;48.29;100754.63;4980838;28;123442;-77
2022/07/25 04:16:33;;;;;;;11.68;8.82;;;;;;;24.63;48.44;100759.03;4966142;28;123160;-77
2022/07/25 04:19:03;;;;;;;9.93;8.00;;;;;;;24.64;48.42;100749.91;4971016;28;119103;-78
2022/07/25 04:21:32;;;;;;;12.02;8.55;;;;;;;24.63;48.58;100737.34;4989514;28;119713;-77
2022/07/25 04:23:59;;;;;;;10.82;7.95;;;;;;;24.64;48.24;100736.34;4970957;28;123958;-78
2022/07/25 04:26:27;;;;;;;13.13;8.75;;;;;;;24.64;48.42;100736.34;4953786;28;123000;-77
2022/07/25 04:28:56;;;;;;;10.32;7.90;;;;;;;24.65;48.34;100729.91;4955604;28;119174;-77
2022/07/25 04:31:24;;;;;;;12.98;8.15;;;;;;;24.65;48.43;100738.03;4987730;28;118128;-77
2022/07/25 04:33:51;;;;;;;10.85;7.82;;;;;;;24.66;48.52;100741.63;4987563;28;123710;-78
2022/07/25 04:36:19;;;;;;;14.65;7.82;;;;;;;24.67;48.35;100736.00;4971650;28;124152;-77
2022/07/25 04:38:46;;;;;;;11.23;7.82;;;;;;;24.68;48.46;100729.59;4975264;28;118582;-77
2022/07/25 04:41:13;;;;;;;13.60;8.20;;;;;;;24.70;48.46;100726.72;4954366;28;117886;-77
2022/07/25 04:43:40;;;;;;;11.93;7.65;;;;;;;24.73;48.32;100720.13;4988928;28;124505;-77
2022/07/25 04:46:20;;;;;;;12.98;7.97;;;;;;;24.74;48.32;100738.09;4973320;28;124283;-78
2022/07/25 04:48:48;;;;;;;10.63;7.38;;;;;;;24.76;48.32;100736.06;4954593;28;120546;-78
2022/07/25 04:51:16;;;;;;;9.23;6.50;;;;;;;24.79;48.48;100730.28;4972115;28;119642;-77
2022/07/25 04:53:44;;;;;;;8.77;6.82;;;;;;;24.84;48.33;100730.66;4970557;28;123454;-77
2022/07/25 04:56:11;;;;;;;9.05;6.85;;;;;;;24.88;48.30;100740.13;4989148;28;123772;-78
2022/07/25 04:58:38;;;;;;;10.02;6.47;;;;;;;24.93;48.33;100726.94;4971309;28;121043;-78
2022/07/25 05:01:06;;;;;;;9.85;6.13;;;;;;;24.98;48.25;100735.44;4994478;28;119700;-78
2022/07/25 05:03:33;;;;;;;9.77;6.28;;;;;;;25.05;48.07;100741.03;4981425;28;124076;-77
2022/07/25 05:06:00;;;;;;;8.65;6.53;;;;;;;25.11;47.94;100728.66;4958142;28;124554;-77
2022/07/25 05:08:28;;;;;;;8.20;5.72;;;;;;;25.16;48.06;100737.16;4971370;28;118733;-77
2022/07/25 05:10:55;;;;;;;8.73;6.10;;;;;;;25.22;47.96;100737.34;4988946;28;118554;-77
2022/07/25 05:13:22;;;;;;;9.50;6.50;;;;;;;25.27;47.84;100739.56;4987942;28;124226;-78
2022/07/25 05:15:49;;;;;;;11.20;6.47;;;;;;;25.34;47.74;100737.91;4998883;28;123652;-77
2022/07/25 05:18:16;;;;;;;8.85;6.72;;;;;;;25.39;47.91;100732.81;4970742;28;119548;-78
2022/07/25 05:20:43;;;;;;;10.60;6.55;;;;;;;25.46;47.78;100738.41;4985917;28;117756;-77
2022/07/25 05:23:10;;;;;;;10.93;7.75;;;;;;;25.52;47.68;100726.03;4985876;28;124106;-77
2022/07/25 05:25:37;;;;;;;9.32;6.53;;;;;;;25.59;47.55;100732.47;4970591;28;123637;-77
2022/07/25 05:28:04;;;;;;;8.50;6.63;;;;;;;25.62;47.76;100727.56;4970220;28;118935;-78
2022/07/25 05:30:32;;;;;;;10.38;7.20;;;;;;;25.70;47.58;100734.84;4983626;28;117178;-77
2022/07/25 05:33:05;;;;;;;10.48;7.47;;;;;;;25.78;47.56;100737.53;4972758;28;123847;-77
2022/07/25 05:35:33;;;;;;;11.07;7.40;;;;;;;25.83;47.39;100740.59;4972375;28;124388;-77
2022/07/25 05:38:00;;;;;;;10.30;7.22;;;;;;;25.89;47.42;100733.63;4969187;28;120003;-77
2022/07/25 05:40:27;;;;;;;10.93;7.82;;;;;;;25.95;47.35;100737.56;4960567;28;119135;-78
2022/07/25 05:42:54;;;;;;;11.30;7.43;;;;;;;25.99;47.16;100733.47;4956354;28;122270;-76
2022/07/25 05:45:28;;;;;;;11.82;8.07;;;;;;;26.04;46.89;100731.09;4996471;28;123097;-78
2022/07/25 05:47:55;;;;;;;9.05;7.47;;;;;;;26.08;47.02;100743.28;4984230;28;118299;-77
2022/07/25 05:50:23;;;;;;;9.85;7.43;;;;;;;26.14;46.98;100731.72;4969431;28;119211;-77
2022/07/25 05:52:50;;;;;;;11.30;7.82;;;;;;;26.19;47.04;100723.91;4988224;28;123512;-76
2022/07/25 05:55:17;;;;;;;10.88;7.47;;;;;;;26.23;47.00;100724.41;4952994;28;123301;-76
2022/07/25 05:57:44;;;;;;;10.98;7.35;;;;;;;26.27;46.83;100725.75;4969466;28;117825;-77
2022/07/25 06:00:12;;;;;;;8.73;7.00;;;;;;;26.33;46.59;100729.66;4987837;28;118534;-77
2022/07/25 06:02:39;;;;;;;10.38;7.30;;;;;;;26.36;46.66;100734.72;4969512;28;124392;-76
2022/07/25 06:05:06;;;;;;;9.45;7.00;;;;;;;26.40;46.46;100730.63;4970094;28;123497;-77
2022/07/25 06:07:34;;;;;;;11.05;6.78;;;;;;;26.45;46.32;100728.25;4969076;28;118243;-77
2022/07/25 06:10:01;;;;;;;9.77;6.97;;;;;;;26.50;46.22;100731.25;4970173;28;118717;-78
2022/07/25 06:12:28;;;;;;;8.93;6.68;;;;;;;26.55;46.04;100734.31;4969823;28;124955;-79
2022/07/25 06:14:56;;;;;;;7.32;5.97;;;;;;;26.58;45.76;100733.97;4967763;28;122034;-77
2022/07/25 06:17:25;;;;;;;8.38;6.40;;;;;;;26.61;45.84;100733.63;4976992;28;118106;-78
2022/07/25 06:19:58;;;;;;;7.28;6.13;;;;;;;26.65;45.71;100733.28;4975447;28;118959;-78
2022/07/25 06:22:25;;;;;;;8.27;5.70;;;;;;;26.66;45.58;100730.41;4980252;28;123721;-78
2022/07/25 06:24:52;;;;;;;8.00;5.97;;;;;;;26.68;45.67;100733.78;4982540;28;124234;-78
2022/07/25 06:27:19;;;;;;;8.80;6.50;;;;;;;26.71;45.66;100738.00;4959370;28;118310;-78
2022/07/25 06:29:52;;;;;;;9.32;6.22;;;;;;;26.72;45.63;100739.72;4995795;28;120125;-78
2022/07/25 06:32:19;;;;;;;11.13;6.45;;;;;;;26.73;45.18;100749.53;4965411;28;122863;-77
2022/07/25 06:34:46;;;;;;;8.55;6.10;;;;;;;26.73;45.69;100747.69;4981233;28;124225;-79
2022/07/25 06:37:13;;;;;;;6.93;5.60;;;;;;;26.78;45.49;100747.13;4998917;28;118678;-78
2022/07/25 06:39:40;;;;;;;6.88;5.80;;;;;;;26.83;45.43;100749.34;4976612;28;119063;-78
2022/07/25 06:42:11;;;;;;;9.85;6.70;;;;;;;26.86;45.55;100740.81;4994475;28;123181;-78
2022/07/25 06:44:38;;;;;;;8.10;6.32;;;;;;;26.86;45.43;100741.69;4981933;28;123927;-77
2022/07/25 06:47:11;;;;;;;8.90;6.20;;;;;;;26.88;45.29;100744.19;4992837;28;119128;-78
2022/07/25 06:49:40;;;;;;;9.85;6.68;;;;;;;26.88;45.52;100755.94;4966730;28;118941;-78
2022/07/25 06:52:07;;;;;;;8.10;6.63;;;;;;;26.88;45.04;100755.94;4977411;28;123093;-78
2022/07/25 06:54:34;;;;;;;10.35;6.90;;;;;;;26.88;45.14;100750.50;4969673;28;122779;-78
2022/07/25 06:57:02;;;;;;;9.88;6.68;;;;;;;26.87;45.35;100765.09;4986481;28;118836;-78
2022/07/25 06:59:29;;;;;;;10.15;6.32;;;;;;;26.89;45.25;100752.19;4972332;28;118318;-78
2022/07/25 07:01:56;;;;;;;10.27;5.93;;;;;;;26.90;45.21;100753.88;4990587;28;123625;-79
2022/07/25 07:04:23;;;;;;;8.45;6.10;;;;;;;26.92;44.75;100754.53;4960047;28;123079;-78
2022/07/25 07:06:50;;;;;;;7.28;5.63;;;;;;;26.94;45.03;100757.94;4964471;28;118726;-78
2022/07/25 07:09:17;;;;;;;7.95;5.82;;;;;;;26.97;45.23;100744.00;4975500;28;118088;-78
2022/07/25 07:11:44;;;;;;;8.07;5.43;;;;;;;27.02;45.33;100740.72;4974424;28;123423;-78
2022/07/25 07:14:11;;;;;;;6.50;4.88;;;;;;;27.10;45.21;100739.81;4956982;28;122756;-78
2022/07/25 07:16:40;;;;;;;8.95;5.15;;;;;;;27.16;44.65;100747.25;4973366;28;119077;-78
2022/07/25 07:19:09;;;;;;;8.18;4.80;;;;;;;27.20;44.44;100743.16;4972443;28;120453;-78
2022/07/25 07:21:36;;;;;;;6.30;5.22;;;;;;;27.22;44.16;100738.38;4992544;28;124005;-78
2022/07/25 07:24:04;;;;;;;6.30;4.38;;;;;;;27.21;44.48;100744.84;5009270;28;123404;-78
2022/07/25 07:26:49;;;;;;;6.57;4.75;;;;;;;27.23;44.30;100731.06;5000454;28;120805;-78
2022/07/25 07:29:16;;;;;;;5.60;4.80;;;;;;;27.25;44.15;100746.19;5014538;28;118062;-78
2022/07/25 07:31:43;;;;;;;5.28;4.50;;;;;;;27.26;43.90;100750.63;4992396;28;124093;-77
2022/07/25 07:34:10;;;;;;;8.13;4.60;;;;;;;27.27;43.88;100744.16;4988617;28;122620;-78
2022/07/25 07:36:42;;;;;;;6.55;4.25;;;;;;;27.26;43.97;100747.91;4974033;28;117594;-78
2022/07/25 07:39:09;;;;;;;9.30;4.57;;;;;;;27.26;43.98;100747.06;4965293;28;117043;-78
2022/07/25 07:41:36;;;;;;;6.78;4.95;;;;;;;27.23;43.75;100750.94;4996835;28;124860;-78
2022/07/25 07:44:06;;;;;;;6.68;4.93;;;;;;;27.20;43.81;100759.47;4997030;28;124606;-78
2022/07/25 07:46:34;;;;;;;6.45;4.13;;;;;;;27.20;43.78;100759.47;4967886;28;119904;-78
2022/07/25 07:49:01;;;;;;;7.65;4.70;;;;;;;27.21;43.93;100755.72;4985115;28;117116;-78
2022/07/25 07:51:28;;;;;;;7.25;4.82;;;;;;;27.27;44.46;100765.06;4960460;28;122274;-78
2022/07/25 07:56:41;;;;;;;8.98;4.20;;;;;;;27.54;44.55;100766.41;4989195;28;119210;-78
2022/07/25 07:59:09;;;;;;;8.10;4.88;;;;;;;27.67;44.47;100760.31;4970635;28;119260;-78
2022/07/25 08:01:36;;;;;;;6.95;4.78;;;;;;;27.77;43.85;100756.31;4971278;28;124314;-78
2022/07/25 08:04:04;;;;;;;6.10;4.50;;;;;;;27.83;43.78;100760.19;4985074;28;123830;-78
2022/07/25 08:06:31;;;;;;;6.32;4.65;;;;;;;27.87;43.82;100771.56;4974297;28;119149;-78
2022/07/25 08:08:58;;;;;;;5.82;4.40;;;;;;;27.88;43.44;100773.25;4990943;28;119595;-78
2022/07/25 08:11:25;;;;;;;6.72;4.38;;;;;;;27.87;43.58;100766.09;4989025;28;124026;-78
2022/07/25 08:13:52;;;;;;;6.93;4.88;;;;;;;27.87;43.47;100766.09;4969838;28;123119;-78
2022/07/25 08:16:19;;;;;;;6.35;4.60;;;;;;;27.87;43.41;100772.38;4966523;28;118180;-80
2022/07/25 08:18:46;;;;;;;7.57;4.40;;;;;;;27.87;43.31;100771.56;4955879;28;118713;-79
2022/07/25 08:21:13;;;;;;;4.50;3.95;;;;;;;27.90;43.60;100771.22;4982491;28;123628;-79
2022/07/25 08:23:41;;;;;;;5.55;4.20;;;;;;;27.95;43.64;100771.50;4961575;28;123164;-78
2022/07/25 08:26:08;;;;;;;5.38;3.65;;;;;;;27.99;43.53;100761.94;4992317;28;118638;-79
2022/07/25 08:28:35;;;;;;;4.90;3.92;;;;;;;28.01;43.60;100757.16;4991434;28;119225;-79
2022/07/25 08:31:02;;;;;;;4.40;3.50;;;;;;;28.07;43.71;100755.56;4975341;28;124048;-79
2022/07/25 08:33:30;;;;;;;5.25;3.28;;;;;;;28.11;43.88;100763.16;4960301;28;123027;-79
2022/07/25 08:35:57;;;;;;;5.85;3.53;;;;;;;28.20;43.71;100761.22;4975651;28;119304;-78
2022/07/25 08:38:26;;;;;;;5.97;3.72;;;;;;;28.30;44.09;100763.66;4974722;28;118374;-78
2022/07/25 08:40:55;;;;;;;6.32;3.50;;;;;;;28.42;43.68;100775.75;4975011;28;123033;-79
2022/07/25 08:43:22;;;;;;;3.58;2.85;;;;;;;28.51;43.96;100774.63;4975040;28;122882;-79
2022/07/25 08:45:51;;;;;;;4.97;2.85;;;;;;;28.62;43.86;100764.34;4969103;28;118732;-79
2022/07/25 08:48:21;;;;;;;4.03;2.80;;;;;;;28.70;43.78;100772.41;4970527;28;118662;-79
2022/07/25 08:50:49;;;;;;;5.13;2.28;;;;;;;28.80;43.64;100772.97;4956888;28;123497;-79
2022/07/25 08:53:19;;;;;;;4.03;1.90;;;;;;;28.89;43.16;100765.50;4973640;28;123634;-79
2022/07/25 08:56:04;;;;;;;3.78;1.40;;;;;;;28.96;43.08;100777.34;4977299;28;119441;-79
2022/07/25 08:58:39;;;;;;;1.85;1.40;;;;;;;29.04;43.15;100787.28;4991355;28;119282;-78
2022/07/25 09:01:06;;;;;;;2.80;1.23;;;;;;;29.10;42.76;100783.78;4971816;28;124251;-78
2022/07/25 09:03:35;;;;;;;3.80;1.70;;;;;;;29.17;42.85;100784.72;4967677;28;122358;-79
2022/07/25 09:06:13;;;;;;;3.22;1.55;;;;;;;29.24;42.97;100779.38;4994658;28;120318;-79
2022/07/25 09:08:53;;;;;;;3.00;1.55;;;;;;;29.34;42.72;100768.13;4976823;28;118583;-78
2022/07/25 09:11:26;;;;;;;3.60;1.55;;;;;;;29.40;42.29;100767.34;4967317;28;123258;-78
2022/07/25 09:13:59;;;;;;;2.92;1.67;;;;;;;29.42;42.47;100765.25;4975387;28;122143;-78
2022/07/25 09:16:35;;;;;;;3.00;1.45;;;;;;;29.44;42.43;100774.09;4991880;28;119470;-79
2022/07/25 09:19:10;;;;;;;2.28;1.40;;;;;;;29.47;42.35;100779.16;4959991;28;118630;-78
2022/07/25 09:21:41;;;;;;;3.00;1.55;;;;;;;29.52;42.85;100782.16;4993455;28;122366;-78
2022/07/25 09:24:14;;;;;;;3.75;1.40;;;;;;;29.58;42.56;100786.84;4975207;28;123849;-79
2022/07/25 09:26:47;;;;;;;4.97;1.40;;;;;;;29.62;42.55;100788.13;4975405;28;119269;-79
2022/07/25 09:29:23;;;;;;;1.83;1.30;;;;;;;29.74;42.93;100795.81;4972799;28;117339;-76
2022/07/25 09:31:53;;;;;;;2.53;1.20;;;;;;;29.87;42.93;100790.47;4985866;28;123485;-77
2022/07/25 09:34:34;;;;;;;3.13;1.27;;;;;;;30.02;42.83;100788.47;4970827;28;124556;-76
2022/07/25 09:37:03;;;;;;;2.58;1.20;;;;;;;30.15;42.34;100786.91;4968897;28;118737;-77
2022/07/25 09:39:46;;;;;;;2.92;1.30;;;;;;;30.19;42.18;100794.50;4986020;28;117634;-77
2022/07/25 09:42:20;;;;;;;3.33;1.20;;;;;;;30.25;42.49;100792.84;4966509;28;124214;-76
2022/07/25 09:44:57;;;;;;;3.42;1.30;;;;;;;30.30;41.98;100801.28;4973895;28;125328;-76
2022/07/25 09:47:25;;;;;;;4.05;1.30;;;;;;;30.39;42.08;100805.59;4960763;28;119936;-76
2022/07/25 09:49:52;;;;;;;3.03;1.15;;;;;;;30.49;41.91;100815.31;4987143;28;119344;-76
2022/07/25 09:52:19;;;;;;;5.70;1.42;;;;;;;30.55;42.14;100814.50;4984502;28;124370;-80
2022/07/25 09:54:47;;;;;;;2.47;1.20;;;;;;;30.61;41.61;100813.69;4992853;28;124437;-82
2022/07/25 09:57:15;;;;;;;3.58;1.20;;;;;;;30.65;41.62;100815.00;4994072;28;120450;-82
2022/07/25 09:59:43;;;;;;;2.90;1.00;;;;;;;30.67;41.50;100812.91;4990003;28;119748;-84
2022/07/25 10:02:22;;;;;;;2.55;1.15;;;;;;;30.67;41.27;100818.38;4999079;28;123435;-81
2022/07/25 10:05:08;;;;;;;4.35;1.10;;;;;;;30.71;41.14;100821.56;4987261;28;125203;-81
2022/07/25 10:07:37;;;;;;;4.15;1.15;;;;;;;30.77;40.67;100828.94;4988830;28;119290;-83
2022/07/25 10:10:05;;;;;;;3.47;1.20;;;;;;;30.76;41.10;100828.09;4989605;28;117984;-82
2022/07/25 10:12:32;;;;;;;2.88;1.35;;;;;;;30.80;40.94;100812.97;4988154;28;124029;-81
2022/07/25 10:15:11;;;;;;;3.38;1.30;;;;;;;30.79;40.47;100815.91;4971342;28;123463;-83
2022/07/25 10:18:07;;;;;;;2.35;1.35;;;;;;;30.71;40.66;100825.13;4971040;28;119191;-82
2022/07/25 10:20:36;;;;;;;1.85;1.30;;;;;;;30.64;40.40;100824.25;4971861;28;118604;-81
2022/07/25 10:23:20;;;;;;;4.15;1.60;;;;;;;30.55;40.29;100819.97;4954190;28;125386;-81
2022/07/25 10:26:19;;;;;;;2.15;1.48;;;;;;;30.49;40.54;100818.06;4970869;28;123031;-80
2022/07/25 10:29:00;;;;;;;2.83;1.20;;;;;;;30.46;40.74;100825.63;4985949;28;119005;-80
2022/07/25 10:31:30;;;;;;;3.17;1.30;;;;;;;30.43;40.74;100833.38;4973283;28;117328;-81
2022/07/25 10:34:01;;;;;;;2.58;1.40;;;;;;;30.45;40.67;100843.03;4987802;28;123044;-82
2022/07/25 10:36:43;;;;;;;3.05;1.25;;;;;;;30.53;40.93;100838.47;4975098;28;125755;-82
2022/07/25 10:39:12;;;;;;;2.78;1.50;;;;;;;30.57;40.91;100828.81;4990752;28;120466;-82
2022/07/25 10:41:51;;;;;;;4.20;1.40;;;;;;;30.59;40.55;100837.66;4976297;28;118661;-82
2022/07/25 10:44:19;;;;;;;3.53;1.45;;;;;;;30.63;40.77;100828.03;4983904;28;124539;-83
2022/07/25 10:46:47;;;;;;;2.70;1.35;;;;;;;30.70;40.81;100826.16;4977407;28;122948;-82
2022/07/25 10:49:21;;;;;;;2.10;1.48;;;;;;;30.78;39.92;100830.59;4960152;28;119339;-83
2022/07/25 10:51:59;;;;;;;3.72;1.60;;;;;;;30.82;39.66;100832.75;4994082;28;118933;-83
2022/07/25 10:54:36;;;;;;;2.00;1.30;;;;;;;30.81;39.79;100831.06;4989954;28;124991;-82
2022/07/25 10:57:05;;;;;;;2.22;1.40;;;;;;;30.88;39.29;100835.72;4974972;28;123056;-82
2022/07/25 10:59:35;;;;;;;5.05;1.80;;;;;;;30.95;39.14;100836.63;4991904;28;119078;-82
2022/07/25 11:02:05;;;;;;;4.05;1.70;;;;;;;31.02;39.17;100834.75;4990608;28;117201;-81
2022/07/25 11:04:33;;;;;;;3.75;1.40;;;;;;;31.11;39.52;100836.25;4986875;28;124149;-82
2022/07/25 11:07:12;;;;;;;3.42;1.75;;;;;;;31.18;39.39;100831.66;4991002;28;123848;-82
2022/07/25 11:09:41;;;;;;;4.03;1.83;;;;;;;31.21;38.97;100835.88;4985313;28;119609;-81
2022/07/25 11:12:13;;;;;;;2.92;1.63;;;;;;;31.22;39.15;100838.41;4972720;28;118178;-80
2022/07/25 11:14:42;;;;;;;4.80;1.60;;;;;;;31.27;38.91;100836.94;4986868;28;124527;-79
2022/07/25 11:17:21;;;;;;;3.33;1.40;;;;;;;31.28;38.59;100835.91;4989637;28;124912;-80
2022/07/25 11:19:56;;;;;;;5.88;1.50;;;;;;;31.28;38.49;100835.91;4970480;28;118886;-82
2022/07/25 11:22:24;;;;;;;5.05;1.60;;;;;;;31.21;38.18;100839.47;4972184;28;119378;-79